Time;durP1;ratioP1;P1;durP2;ratioP2;P2;SDS_P1;SDS_P2;PMS_P1;PMS_P2;Temp;Humidity;BMP_temperature;BMP_pressure;BME280_temperature;BME280_humidity;BME280_pressure;Samples;Min_cycle;Max_cycle;Signal;HPM_P1;HPM_P2
2023/03/25 00:01:39;;;;;;;;;;;;;;;;;;5054757;28;19982;-68
2023/03/25 00:04:04;;;;;;;;;;;;;;;;;;5054227;28;19953;-66
2023/03/25 00:06:33;;;;;;;;;;;;;;;;;;5054191;28;19984;-66
2023/03/25 00:08:59;;;;;;;;;;;;;;;;;;5054396;28;19960;-69
2023/03/25 00:11:25;;;;;;;;;;;;;;;;;;5054140;28;19959;-71
2023/03/25 00:13:52;;;;;;;;;;;;;;;;;;5054114;28;20049;-67
2023/03/25 00:16:18;;;;;;;;;;;;;;;;;;5054327;28;19953;-68
2023/03/25 00:18:46;;;;;;;;;;;;;;;;;;5054338;28;20327;-67
2023/03/25 00:21:12;;;;;;;;;;;;;;;;;;5054441;28;20093;-66
2023/03/25 00:23:38;;;;;;;;;;;;;;;;;;5053922;28;19958;-69
2023/03/25 00:26:04;;;;;;;;;;;;;;;;;;5053874;28;19996;-70
2023/03/25 00:28:30;;;;;;;;;;;;;;;;;;5054065;28;20427;-70
2023/03/25 00:30:56;;;;;;;;;;;;;;;;;;5054056;28;19960;-69
2023/03/25 00:33:22;;;;;;;;;;;;;;;;;;5054328;28;19951;-68
2023/03/25 00:35:51;;;;;;;;;;;;;;;;;;5053764;28;19957;-71
2023/03/25 00:38:17;;;;;;;;;;;;;;;;;;5053771;28;19949;-68
2023/03/25 00:40:45;;;;;;;;;;;;;;;;;;5053700;28;20483;-70
2023/03/25 00:43:11;;;;;;;;;;;;;;;;;;5053690;28;19987;-69
2023/03/25 00:45:37;;;;;;;;;;;;;;;;;;5053918;28;20042;-66
2023/03/25 00:48:03;;;;;;;;;;;;;;;;;;5053559;28;20315;-69
2023/03/25 00:50:29;;;;;;;;;;;;;;;;;;5053905;28;19956;-67
2023/03/25 00:52:54;;;;;;;;;;;;;;;;;;5053332;28;19950;-69
2023/03/25 00:55:21;;;;;;;;;;;;;;;;;;5053579;28;19974;-68
2023/03/25 00:57:47;;;;;;;;;;;;;;;;;;5053542;28;19975;-70
2023/03/25 01:00:14;;;;;;;;;;;;;;;;;;5054088;28;20403;-68
2023/03/25 01:02:40;;;;;;;;;;;;;;;;;;5053669;28;20005;-68
2023/03/25 01:05:06;;;;;;;;;;;;;;;;;;5053700;28;19948;-69
2023/03/25 01:07:33;;;;;;;;;;;;;;;;;;5053405;28;20022;-69
2023/03/25 01:09:59;;;;;;;;;;;;;;;;;;5053389;28;19952;-70
2023/03/25 01:12:25;;;;;;;;;;;;;;;;;;5053651;28;20003;-70
2023/03/25 01:14:51;;;;;;;;;;;;;;;;;;5053620;28;19987;-69
2023/03/25 01:17:17;;;;;;;;;;;;;;;;;;5053599;28;19953;-69
2023/03/25 01:19:44;;;;;;;;;;;;;;;;;;5053619;28;19953;-66
2023/03/25 01:22:10;;;;;;;;;;;;;;;;;;5053244;28;20009;-69
2023/03/25 01:24:36;;;;;;;;;;;;;;;;;;5053556;28;19957;-67
2023/03/25 01:27:02;;;;;;;;;;;;;;;;;;5053479;28;19957;-68
2023/03/25 01:29:28;;;;;;;;;;;;;;;;;;5053295;28;19972;-70
2023/03/25 01:31:54;;;;;;;;;;;;;;;;;;5053790;28;19958;-67
2023/03/25 01:34:20;;;;;;;;;;;;;;;;;;5053242;28;20423;-69
2023/03/25 01:36:46;;;;;;;;;;;;;;;;;;5053211;28;19998;-68
2023/03/25 01:39:15;;;;;;;;;;;;;;;;;;5053145;28;19958;-71
2023/03/25 01:41:41;;;;;;;;;;;;;;;;;;5052542;28;20364;-70
2023/03/25 01:44:07;;;;;;;;;;;;;;;;;;5053683;28;19997;-66
2023/03/25 01:46:33;;;;;;;;;;;;;;;;;;5053061;28;19958;-71
2023/03/25 01:48:59;;;;;;;;;;;;;;;;;;5053331;28;20004;-71
2023/03/25 01:51:25;;;;;;;;;;;;;;;;;;5052989;28;20404;-68
2023/03/25 01:53:54;;;;;;;;;;;;;;;;;;5053556;28;19952;-70
2023/03/25 01:56:20;;;;;;;;;;;;;;;;;;5052980;28;19958;-67
2023/03/25 01:58:45;;;;;;;;;;;;;;;;;;5053189;28;19953;-69
2023/03/25 02:01:12;;;;;;;;;;;;;;;;;;5052901;28;19972;-70
2023/03/25 02:03:38;;;;;;;;;;;;;;;;;;5052831;28;20389;-68
2023/03/25 02:06:04;;;;;;;;;;;;;;;;;;5056222;28;19993;-69
2023/03/25 02:08:31;;;;;;;;;;;;;;;;;;5056450;28;20032;-71
2023/03/25 02:10:57;;;;;;;;;;;;;;;;;;5056695;28;20406;-68
2023/03/25 02:13:23;;;;;;;;;;;;;;;;;;5056932;28;19952;-66
2023/03/25 02:15:50;;;;;;;;;;;;;;;;;;5056348;28;20039;-69
2023/03/25 02:18:16;;;;;;;;;;;;;;;;;;5056852;28;20463;-68
2023/03/25 02:20:42;;;;;;;;;;;;;;;;;;5056139;28;19987;-68
2023/03/25 02:23:08;;;;;;;;;;;;;;;;;;5056739;28;19960;-66
2023/03/25 02:25:34;;;;;;;;;;;;;;;;;;5056103;28;20408;-70
2023/03/25 02:28:00;;;;;;;;;;;;;;;;;;5056127;28;19950;-66
2023/03/25 02:30:26;;;;;;;;;;;;;;;;;;5056534;28;20351;-66
2023/03/25 02:32:52;;;;;;;;;;;;;;;;;;5056294;28;19952;-69
2023/03/25 02:35:19;;;;;;;;;;;;;;;;;;5056474;28;19956;-68
2023/03/25 02:37:45;;;;;;;;;;;;;;;;;;5054389;28;19959;-66
2023/03/25 02:40:11;;;;;;;;;;;;;;;;;;5055689;28;19994;-71
2023/03/25 02:42:37;;;;;;;;;;;;;;;;;;5055719;28;20059;-65
2023/03/25 02:45:03;;;;;;;;;;;;;;;;;;5056310;28;19952;-68
2023/03/25 02:47:29;;;;;;;;;;;;;;;;;;5055699;28;19961;-68
2023/03/25 02:49:55;;;;;;;;;;;;;;;;;;5055966;28;19949;-67
2023/03/25 02:52:21;;;;;;;;;;;;;;;;;;5055668;28;20000;-71
2023/03/25 02:54:46;;;;;;;;;;;;;;;;;;5055618;28;20418;-67
2023/03/25 02:57:12;;;;;;;;;;;;;;;;;;5055514;28;19952;-69
2023/03/25 02:59:38;;;;;;;;;;;;;;;;;;5055780;28;19949;-68
2023/03/25 03:02:04;;;;;;;;;;;;;;;;;;5056209;28;19996;-70
2023/03/25 03:04:30;;;;;;;;;;;;;;;;;;5055356;28;20404;-69
2023/03/25 03:06:57;;;;;;;;;;;;;;;;;;5055360;28;19956;-66
2023/03/25 03:09:24;;;;;;;;;;;;;;;;;;5055249;28;19952;-68
2023/03/25 03:11:50;;;;;;;;;;;;;;;;;;5055528;28;19952;-68
2023/03/25 03:14:16;;;;;;;;;;;;;;;;;;5055176;28;19960;-70
2023/03/25 03:16:41;;;;;;;;;;;;;;;;;;5055573;28;20001;-68
2023/03/25 03:19:07;;;;;;;;;;;;;;;;;;5055104;28;19977;-69
2023/03/25 03:21:33;;;;;;;;;;;;;;;;;;5055580;28;20475;-66
2023/03/25 03:23:59;;;;;;;;;;;;;;;;;;5055321;28;19947;-68
2023/03/25 03:26:26;;;;;;;;;;;;;;;;;;5054989;28;19952;-67
2023/03/25 03:28:53;;;;;;;;;;;;;;;;;;5055141;28;19976;-69
2023/03/25 03:31:19;;;;;;;;;;;;;;;;;;5055165;28;19998;-68
2023/03/25 03:33:44;;;;;;;;;;;;;;;;;;5054861;28;19951;-67
2023/03/25 03:36:12;;;;;;;;;;;;;;;;;;5055322;28;20044;-65
2023/03/25 03:38:38;;;;;;;;;;;;;;;;;;5053485;28;19963;-66
2023/03/25 03:41:04;;;;;;;;;;;;;;;;;;5054418;28;19983;-69
2023/03/25 03:43:30;;;;;;;;;;;;;;;;;;5054629;28;19984;-67
2023/03/25 03:45:56;;;;;;;;;;;;;;;;;;5054579;28;19948;-68
2023/03/25 03:48:22;;;;;;;;;;;;;;;;;;5055096;28;20387;-69
2023/03/25 03:50:49;;;;;;;;;;;;;;;;;;5055013;28;20325;-68
2023/03/25 03:53:15;;;;;;;;;;;;;;;;;;5054391;28;19956;-67
2023/03/25 03:55:41;;;;;;;;;;;;;;;;;;5054377;28;19956;-69
2023/03/25 03:58:08;;;;;;;;;;;;;;;;;;5054639;28;19950;-66
2023/03/25 04:00:35;;;;;;;;;;;;;;;;;;5054325;28;19960;-69
2023/03/25 04:03:01;;;;;;;;;;;;;;;;;;5054485;28;20013;-69
2023/03/25 04:05:29;;;;;;;;;;;;;;;;;;5054253;28;19981;-66
2023/03/25 04:07:55;;;;;;;;;;;;;;;;;;5054455;28;19951;-67
2023/03/25 04:10:21;;;;;;;;;;;;;;;;;;5054144;28;19991;-69
2023/03/25 04:12:47;;;;;;;;;;;;;;;;;;5054115;28;19951;-69
2023/03/25 04:15:14;;;;;;;;;;;;;;;;;;5054373;28;19959;-67
2023/03/25 04:17:41;;;;;;;;;;;;;;;;;;5054089;28;19952;-68
2023/03/25 04:20:10;;;;;;;;;;;;;;;;;;5054308;28;19952;-70
2023/03/25 04:22:44;;;;;;;;;;;;;;;;;;5054168;28;19972;-67
2023/03/25 04:25:10;;;;;;;;;;;;;;;;;;5052425;28;19957;-66
2023/03/25 04:27:36;;;;;;;;;;;;;;;;;;5053699;28;20403;-69
2023/03/25 04:30:03;;;;;;;;;;;;;;;;;;5053913;28;19968;-68
2023/03/25 04:32:30;;;;;;;;;;;;;;;;;;5053832;28;19961;-69
2023/03/25 04:34:56;;;;;;;;;;;;;;;;;;5053807;28;19949;-68
2023/03/25 04:37:22;;;;;;;;;;;;;;;;;;5053780;28;20357;-66
2023/03/25 04:39:48;;;;;;;;;;;;;;;;;;5053847;28;19984;-67
2023/03/25 04:42:16;;;;;;;;;;;;;;;;;;5054194;28;20438;-68
2023/03/25 04:44:44;;;;;;;;;;;;;;;;;;5053927;28;19955;-71
2023/03/25 04:47:10;;;;;;;;;;;;;;;;;;5052398;28;19977;-67
2023/03/25 04:49:36;;;;;;;;;;;;;;;;;;5053616;28;19958;-65
2023/03/25 04:52:03;;;;;;;;;;;;;;;;;;5053881;28;19953;-67
2023/03/25 04:54:29;;;;;;;;;;;;;;;;;;5053521;28;20304;-71
2023/03/25 04:56:55;;;;;;;;;;;;;;;;;;5053568;28;19959;-68
2023/03/25 04:59:23;;;;;;;;;;;;;;;;;;5053119;28;19955;-70
2023/03/25 05:01:49;;;;;;;;;;;;;;;;;;5053405;28;20074;-70
2023/03/25 05:04:15;;;;;;;;;;;;;;;;;;5053485;28;20477;-67
2023/03/25 05:06:42;;;;;;;;;;;;;;;;;;5053835;28;19974;-69
2023/03/25 05:09:08;;;;;;;;;;;;;;;;;;5054471;28;19950;-66
2023/03/25 05:11:34;;;;;;;;;;;;;;;;;;5053646;28;19960;-70
2023/03/25 05:14:00;;;;;;;;;;;;;;;;;;5052170;28;19957;-67
2023/03/25 05:16:26;;;;;;;;;;;;;;;;;;5053925;28;20478;-66
2023/03/25 05:18:52;;;;;;;;;;;;;;;;;;5053623;28;19952;-69
2023/03/25 05:21:18;;;;;;;;;;;;;;;;;;5053251;28;20364;-70
2023/03/25 05:23:44;;;;;;;;;;;;;;;;;;5053317;28;19956;-70
2023/03/25 05:26:13;;;;;;;;;;;;;;;;;;5053517;28;20326;-67
2023/03/25 05:28:39;;;;;;;;;;;;;;;;;;5053157;28;19961;-68
2023/03/25 05:31:07;;;;;;;;;;;;;;;;;;5053199;28;20329;-70
2023/03/25 05:33:33;;;;;;;;;;;;;;;;;;5053432;28;19953;-69
2023/03/25 05:36:00;;;;;;;;;;;;;;;;;;5053685;28;20409;-68
2023/03/25 05:38:26;;;;;;;;;;;;;;;;;;5053158;28;19999;-67
2023/03/25 05:40:52;;;;;;;;;;;;;;;;;;5055391;28;19994;-69
2023/03/25 05:43:21;;;;;;;;;;;;;;;;;;5056919;28;19997;-67
2023/03/25 05:45:47;;;;;;;;;;;;;;;;;;5055660;28;19963;-73
2023/03/25 05:48:13;;;;;;;;;;;;;;;;;;5056842;28;19954;-69
2023/03/25 05:50:41;;;;;;;;;;;;;;;;;;5057053;28;19951;-69
2023/03/25 05:53:08;;;;;;;;;;;;;;;;;;5056704;28;20452;-68
2023/03/25 05:55:34;;;;;;;;;;;;;;;;;;5056672;28;20011;-69
2023/03/25 05:58:00;;;;;;;;;;;;;;;;;;5056955;28;19950;-71
2023/03/25 06:00:26;;;;;;;;;;;;;;;;;;5056662;28;19952;-66
2023/03/25 06:02:52;;;;;;;;;;;;;;;;;;5056513;28;19972;-66
2023/03/25 06:05:22;;;;;;;;;;;;;;;;;;5056557;28;19954;-67
2023/03/25 06:07:48;;;;;;;;;;;;;;;;;;5056493;28;19972;-68
2023/03/25 06:10:17;;;;;;;;;;;;;;;;;;5057025;28;20455;-71
2023/03/25 06:12:44;;;;;;;;;;;;;;;;;;5056663;28;19997;-69
2023/03/25 06:15:10;;;;;;;;;;;;;;;;;;5056634;28;19991;-69
2023/03/25 06:17:38;;;;;;;;;;;;;;;;;;5056595;28;19974;-68
2023/03/25 06:20:05;;;;;;;;;;;;;;;;;;5056216;28;19960;-67
2023/03/25 06:22:32;;;;;;;;;;;;;;;;;;5056420;28;20014;-69
2023/03/25 06:24:58;;;;;;;;;;;;;;;;;;5056160;28;19955;-66
2023/03/25 06:27:25;;;;;;;;;;;;;;;;;;5054665;28;19953;-69
2023/03/25 06:29:51;;;;;;;;;;;;;;;;;;5056025;28;19962;-68
2023/03/25 06:32:17;;;;;;;;;;;;;;;;;;5056304;28;19951;-69
2023/03/25 06:34:43;;;;;;;;;;;;;;;;;;5055959;28;20313;-66
2023/03/25 06:37:09;;;;;;;;;;;;;;;;;;5056525;28;19955;-71
2023/03/25 06:39:36;;;;;;;;;;;;;;;;;;5054456;28;19957;-67
2023/03/25 06:42:02;;;;;;;;;;;;;;;;;;5056100;28;19974;-66
2023/03/25 06:44:28;;;;;;;;;;;;;;;;;;5055750;28;20467;-66
2023/03/25 06:46:54;;;;;;;;;;;;;;;;;;5056331;28;19946;-69
2023/03/25 06:49:20;;;;;;;;;;;;;;;;;;5055712;28;19955;-68
2023/03/25 06:51:46;;;;;;;;;;;;;;;;;;5055811;28;19950;-69
2023/03/25 06:54:12;;;;;;;;;;;;;;;;;;5055864;28;19956;-68
2023/03/25 06:56:38;;;;;;;;;;;;;;;;;;5055566;28;20029;-67
2023/03/25 06:59:04;;;;;;;;;;;;;;;;;;5055798;28;20052;-71
2023/03/25 07:01:30;;;;;;;;;;;;;;;;;;5055393;28;19978;-70
2023/03/25 07:03:56;;;;;;;;;;;;;;;;;;5055747;28;19952;-69
2023/03/25 07:06:22;;;;;;;;;;;;;;;;;;5055385;28;20293;-67
2023/03/25 07:08:48;;;;;;;;;;;;;;;;;;5055349;28;20396;-66
2023/03/25 07:11:14;;;;;;;;;;;;;;;;;;5055290;28;19962;-70
2023/03/25 07:13:39;;;;;;;;;;;;;;;;;;5055508;28;19983;-69
2023/03/25 07:16:05;;;;;;;;;;;;;;;;;;5055185;28;20333;-67
2023/03/25 07:18:31;;;;;;;;;;;;;;;;;;5055738;28;19995;-69
2023/03/25 07:20:57;;;;;;;;;;;;;;;;;;5055049;28;19981;-69
2023/03/25 07:23:24;;;;;;;;;;;;;;;;;;5055370;28;20290;-68
2023/03/25 07:25:50;;;;;;;;;;;;;;;;;;5055356;28;19951;-67
2023/03/25 07:28:16;;;;;;;;;;;;;;;;;;5054986;28;19998;-68
2023/03/25 07:30:42;;;;;;;;;;;;;;;;;;5054808;28;19969;-69
2023/03/25 07:33:08;;;;;;;;;;;;;;;;;;5055125;28;20051;-68
2023/03/25 07:35:33;;;;;;;;;;;;;;;;;;5054831;28;20492;-68
2023/03/25 07:37:59;;;;;;;;;;;;;;;;;;5054789;28;19946;-69
2023/03/25 07:40:25;;;;;;;;;;;;;;;;;;5054655;28;19984;-68
2023/03/25 07:42:51;;;;;;;;;;;;;;;;;;5054875;28;19967;-66
2023/03/25 07:45:17;;;;;;;;;;;;;;;;;;5054616;28;20047;-71
2023/03/25 07:47:48;;;;;;;;;;;;;;;;;;5054563;28;19950;-67
2023/03/25 07:50:14;;;;;;;;;;;;;;;;;;5054838;28;19982;-71
2023/03/25 07:52:40;;;;;;;;;;;;;;;;;;5054464;28;19945;-67
2023/03/25 07:55:06;;;;;;;;;;;;;;;;;;5054774;28;19960;-68
2023/03/25 07:57:32;;;;;;;;;;;;;;;;;;5054417;28;20374;-68
2023/03/25 07:59:58;;;;;;;;;;;;;;;;;;5054355;28;19952;-69
2023/03/25 08:02:24;;;;;;;;;;;;;;;;;;5053455;28;20415;-68
2023/03/25 08:04:53;;;;;;;;;;;;;;;;;;5054382;28;19951;-70
2023/03/25 08:07:19;;;;;;;;;;;;;;;;;;5054199;28;20437;-68
2023/03/25 08:09:45;;;;;;;;;;;;;;;;;;5054253;28;19952;-69
2023/03/25 08:12:11;;;;;;;;;;;;;;;;;;5054435;28;19950;-70
2023/03/25 08:14:36;;;;;;;;;;;;;;;;;;5054334;28;19962;-71
2023/03/25 08:17:02;;;;;;;;;;;;;;;;;;5054103;28;19979;-69
2023/03/25 08:19:28;;;;;;;;;;;;;;;;;;5054327;28;20013;-68
2023/03/25 08:21:54;;;;;;;;;;;;;;;;;;5054181;28;20455;-70
2023/03/25 08:24:23;;;;;;;;;;;;;;;;;;5053968;28;19958;-67
2023/03/25 08:26:49;;;;;;;;;;;;;;;;;;5053919;28;19959;-66
2023/03/25 08:29:16;;;;;;;;;;;;;;;;;;5053799;28;19975;-69
2023/03/25 08:31:45;;;;;;;;;;;;;;;;;;5054128;28;19957;-66
2023/03/25 08:34:12;;;;;;;;;;;;;;;;;;5053798;28;19998;-67
2023/03/25 08:36:38;;;;;;;;;;;;;;;;;;5053826;28;20021;-68
2023/03/25 08:39:08;;;;;;;;;;;;;;;;;;5054389;28;20392;-69
2023/03/25 08:41:34;;;;;;;;;;;;;;;;;;5053258;28;20027;-67
2023/03/25 08:44:00;;;;;;;;;;;;;;;;;;5054272;28;20314;-69
2023/03/25 08:46:26;;;;;;;;;;;;;;;;;;5054521;28;19948;-68
2023/03/25 08:48:52;;;;;;;;;;;;;;;;;;5053980;28;19988;-67
2023/03/25 08:51:18;;;;;;;;;;;;;;;;;;5053622;28;20002;-71
2023/03/25 08:53:44;;;;;;;;;;;;;;;;;;5053620;28;20041;-69
2023/03/25 08:56:10;;;;;;;;;;;;;;;;;;5054028;28;20308;-68
2023/03/25 08:58:36;;;;;;;;;;;;;;;;;;5053573;28;20049;-70
2023/03/25 09:01:02;;;;;;;;;;;;;;;;;;5054050;28;20315;-69
2023/03/25 09:03:28;;;;;;;;;;;;;;;;;;5053378;28;20329;-66
2023/03/25 09:05:54;;;;;;;;;;;;;;;;;;5054024;28;19963;-70
2023/03/25 09:08:19;;;;;;;;;;;;;;;;;;5053478;28;19996;-66
2023/03/25 09:10:45;;;;;;;;;;;;;;;;;;5053983;28;20002;-69
2023/03/25 09:13:11;;;;;;;;;;;;;;;;;;5053691;28;20052;-69
2023/03/25 09:15:37;;;;;;;;;;;;;;;;;;5057433;28;19959;-67
2023/03/25 09:18:04;;;;;;;;;;;;;;;;;;5057948;28;20050;-71
2023/03/25 09:20:30;;;;;;;;;;;;;;;;;;5057351;28;19953;-66
2023/03/25 09:22:56;;;;;;;;;;;;;;;;;;5057169;28;19971;-68
2023/03/25 09:25:22;;;;;;;;;;;;;;;;;;5057284;28;20006;-68
2023/03/25 09:27:48;;;;;;;;;;;;;;;;;;5057385;28;19950;-67
2023/03/25 09:30:14;;;;;;;;;;;;;;;;;;5057705;28;19968;-67
2023/03/25 09:32:40;;;;;;;;;;;;;;;;;;5057123;28;19960;-67
2023/03/25 09:35:07;;;;;;;;;;;;;;;;;;5055830;28;20340;-67
2023/03/25 09:37:33;;;;;;;;;;;;;;;;;;5057724;28;19951;-71
2023/03/25 09:39:59;;;;;;;;;;;;;;;;;;5056825;28;19996;-66
2023/03/25 09:42:25;;;;;;;;;;;;;;;;;;5057492;28;19979;-65
2023/03/25 09:44:51;;;;;;;;;;;;;;;;;;5056921;28;19990;-71
2023/03/25 09:47:16;;;;;;;;;;;;;;;;;;5056529;28;19959;-66
2023/03/25 09:49:42;;;;;;;;;;;;;;;;;;5056833;28;19995;-67
2023/03/25 09:52:08;;;;;;;;;;;;;;;;;;5056752;28;20553;-70
2023/03/25 09:54:34;;;;;;;;;;;;;;;;;;5056711;28;19978;-71
2023/03/25 09:57:00;;;;;;;;;;;;;;;;;;5057358;28;20415;-69
2023/03/25 09:59:26;;;;;;;;;;;;;;;;;;5056725;28;19943;-69
2023/03/25 10:01:52;;;;;;;;;;;;;;;;;;5055268;28;20007;-69
2023/03/25 10:04:18;;;;;;;;;;;;;;;;;;5056629;28;19965;-71
2023/03/25 10:06:44;;;;;;;;;;;;;;;;;;5055083;28;19956;-70
2023/03/25 10:09:10;;;;;;;;;;;;;;;;;;5056502;28;19951;-67
2023/03/25 10:11:36;;;;;;;;;;;;;;;;;;5056696;28;19956;-67
2023/03/25 10:14:02;;;;;;;;;;;;;;;;;;5056114;28;20328;-68
2023/03/25 10:16:28;;;;;;;;;;;;;;;;;;5056347;28;19958;-70
2023/03/25 10:18:54;;;;;;;;;;;;;;;;;;5056264;28;20324;-69
2023/03/25 10:21:19;;;;;;;;;;;;;;;;;;5056201;28;20092;-71
2023/03/25 10:23:45;;;;;;;;;;;;;;;;;;5056481;28;20001;-70
2023/03/25 10:26:11;;;;;;;;;;;;;;;;;;5055577;28;20397;-69
2023/03/25 10:28:37;;;;;;;;;;;;;;;;;;5055704;28;19957;-70
2023/03/25 10:31:03;;;;;;;;;;;;;;;;;;5056143;28;19984;-70
2023/03/25 10:33:29;;;;;;;;;;;;;;;;;;5056300;28;19961;-68
2023/03/25 10:35:55;;;;;;;;;;;;;;;;;;5055934;28;19945;-70
2023/03/25 10:38:22;;;;;;;;;;;;;;;;;;5055954;28;19958;-69
2023/03/25 10:40:48;;;;;;;;;;;;;;;;;;5055569;28;19993;-66
2023/03/25 10:43:15;;;;;;;;;;;;;;;;;;5056066;28;19984;-71
2023/03/25 10:45:41;;;;;;;;;;;;;;;;;;5055796;28;19970;-68
2023/03/25 10:48:07;;;;;;;;;;;;;;;;;;5055706;28;19951;-69
2023/03/25 10:50:33;;;;;;;;;;;;;;;;;;5055939;28;19954;-69
2023/03/25 10:52:59;;;;;;;;;;;;;;;;;;5055640;28;19958;-66
2023/03/25 10:55:25;;;;;;;;;;;;;;;;;;5055641;28;19959;-67
2023/03/25 10:57:51;;;;;;;;;;;;;;;;;;5055509;28;19951;-67
2023/03/25 11:00:22;;;;;;;;;;;;;;;;;;5055534;28;19990;-69
2023/03/25 11:02:48;;;;;;;;;;;;;;;;;;5054407;28;19977;-71
2023/03/25 11:05:15;;;;;;;;;;;;;;;;;;5055315;28;20386;-68
2023/03/25 11:07:42;;;;;;;;;;;;;;;;;;5054098;28;19962;-70
2023/03/25 11:10:08;;;;;;;;;;;;;;;;;;5055595;28;20004;-68
2023/03/25 11:12:33;;;;;;;;;;;;;;;;;;5055301;28;19955;-70
2023/03/25 11:15:00;;;;;;;;;;;;;;;;;;5055553;28;19980;-70
2023/03/25 11:17:26;;;;;;;;;;;;;;;;;;5055446;28;19950;-71
2023/03/25 11:19:52;;;;;;;;;;;;;;;;;;5055693;28;19952;-69
2023/03/25 11:22:18;;;;;;;;;;;;;;;;;;5055061;28;20444;-68
2023/03/25 11:24:44;;;;;;;;;;;;;;;;;;5055320;28;19958;-67
2023/03/25 11:27:10;;;;;;;;;;;;;;;;;;5055024;28;19948;-66
2023/03/25 11:29:36;;;;;;;;;;;;;;;;;;5055243;28;20021;-69
2023/03/25 11:32:02;;;;;;;;;;;;;;;;;;5054951;28;19946;-71
2023/03/25 11:34:28;;;;;;;;;;;;;;;;;;5054864;28;20043;-68
2023/03/25 11:36:54;;;;;;;;;;;;;;;;;;5055108;28;19950;-66
2023/03/25 11:39:20;;;;;;;;;;;;;;;;;;5054794;28;20305;-69
2023/03/25 11:41:46;;;;;;;;;;;;;;;;;;5054696;28;20084;-69
2023/03/25 11:44:12;;;;;;;;;;;;;;;;;;5054994;28;19951;-68
2023/03/25 11:46:38;;;;;;;;;;;;;;;;;;5054679;28;20478;-71
2023/03/25 11:49:04;;;;;;;;;;;;;;;;;;5054641;28;19952;-71
2023/03/25 11:51:30;;;;;;;;;;;;;;;;;;5054883;28;19956;-66
2023/03/25 11:53:56;;;;;;;;;;;;;;;;;;5054543;28;19953;-70
2023/03/25 11:56:22;;;;;;;;;;;;;;;;;;5054787;28;19959;-68
2023/03/25 11:58:48;;;;;;;;;;;;;;;;;;5054751;28;20042;-71
2023/03/25 12:01:13;;;;;;;;;;;;;;;;;;5054303;28;20033;-68
2023/03/25 12:03:39;;;;;;;;;;;;;;;;;;5054329;28;20006;-69
2023/03/25 12:06:05;;;;;;;;;;;;;;;;;;5054319;28;20006;-69
2023/03/25 12:08:31;;;;;;;;;;;;;;;;;;5054270;28;20393;-70
2023/03/25 12:10:57;;;;;;;;;;;;;;;;;;5054209;28;19988;-69
2023/03/25 12:13:23;;;;;;;;;;;;;;;;;;5054456;28;19956;-70
2023/03/25 12:15:49;;;;;;;;;;;;;;;;;;5054393;28;19958;-68
2023/03/25 12:18:15;;;;;;;;;;;;;;;;;;5054651;28;19952;-68
2023/03/25 12:20:41;;;;;;;;;;;;;;;;;;5054037;28;20042;-68
2023/03/25 12:23:07;;;;;;;;;;;;;;;;;;5053943;28;20003;-68
2023/03/25 12:25:33;;;;;;;;;;;;;;;;;;5054509;28;20427;-70
2023/03/25 12:27:59;;;;;;;;;;;;;;;;;;5053924;28;20421;-69
2023/03/25 12:30:25;;;;;;;;;;;;;;;;;;5053824;28;19981;-65
2023/03/25 12:32:51;;;;;;;;;;;;;;;;;;5054675;28;20002;-68
2023/03/25 12:35:17;;;;;;;;;;;;;;;;;;5053798;28;19954;-69
2023/03/25 12:37:43;;;;;;;;;;;;;;;;;;5054332;28;20396;-69
2023/03/25 12:40:10;;;;;;;;;;;;;;;;;;5053566;28;20468;-70
2023/03/25 12:42:36;;;;;;;;;;;;;;;;;;5053962;28;20332;-70
2023/03/25 12:45:02;;;;;;;;;;;;;;;;;;5053709;28;19956;-70
2023/03/25 12:47:28;;;;;;;;;;;;;;;;;;5053670;28;19956;-67
2023/03/25 12:49:54;;;;;;;;;;;;;;;;;;5053481;28;19947;-69
2023/03/25 12:52:20;;;;;;;;;;;;;;;;;;5053880;28;20030;-72
2023/03/25 12:54:46;;;;;;;;;;;;;;;;;;5054199;28;19992;-69
2023/03/25 12:57:12;;;;;;;;;;;;;;;;;;5053586;28;20322;-69
2023/03/25 12:59:40;;;;;;;;;;;;;;;;;;5053825;28;20030;-67
2023/03/25 13:02:06;;;;;;;;;;;;;;;;;;5052183;28;20416;-69
2023/03/25 13:04:33;;;;;;;;;;;;;;;;;;5053474;28;19949;-70
2023/03/25 13:06:59;;;;;;;;;;;;;;;;;;5053461;28;19978;-67
2023/03/25 13:09:25;;;;;;;;;;;;;;;;;;5053427;28;19947;-70
2023/03/25 13:11:51;;;;;;;;;;;;;;;;;;5053670;28;20332;-71
2023/03/25 13:14:18;;;;;;;;;;;;;;;;;;5053948;28;19952;-69
2023/03/25 13:16:44;;;;;;;;;;;;;;;;;;5053732;28;19960;-69
2023/03/25 13:19:10;;;;;;;;;;;;;;;;;;5053907;28;19944;-70
2023/03/25 13:21:36;;;;;;;;;;;;;;;;;;5053315;28;19971;-70
2023/03/25 13:24:02;;;;;;;;;;;;;;;;;;5053368;28;19952;-68
2023/03/25 13:26:28;;;;;;;;;;;;;;;;;;5053578;28;19961;-69
2023/03/25 13:28:57;;;;;;;;;;;;;;;;;;5053453;28;20477;-66
2023/03/25 13:31:22;;;;;;;;;;;;;;;;;;5053192;28;19949;-70
2023/03/25 13:33:50;;;;;;;;;;;;;;;;;;5053229;28;20331;-68
2023/03/25 13:36:16;;;;;;;;;;;;;;;;;;5053184;28;19954;-67
2023/03/25 13:38:42;;;;;;;;;;;;;;;;;;5051936;28;19989;-69
2023/03/25 13:41:08;;;;;;;;;;;;;;;;;;5052894;28;20038;-69
2023/03/25 13:43:34;;;;;;;;;;;;;;;;;;5051868;28;19961;-68
2023/03/25 13:46:00;;;;;;;;;;;;;;;;;;5053680;28;19957;-69
2023/03/25 13:48:27;;;;;;;;;;;;;;;;;;5053383;28;19959;-67
2023/03/25 13:50:53;;;;;;;;;;;;;;;;;;5053321;28;19950;-70
2023/03/25 13:53:19;;;;;;;;;;;;;;;;;;5053012;28;20451;-70
2023/03/25 13:55:45;;;;;;;;;;;;;;;;;;5051821;28;20382;-67
2023/03/25 13:58:11;;;;;;;;;;;;;;;;;;5053001;28;19951;-67
2023/03/25 14:00:37;;;;;;;;;;;;;;;;;;5053851;28;19954;-68
2023/03/25 14:03:03;;;;;;;;;;;;;;;;;;5056475;28;20064;-67
2023/03/25 14:05:29;;;;;;;;;;;;;;;;;;5056629;28;19991;-70
2023/03/25 14:07:55;;;;;;;;;;;;;;;;;;5056570;28;19951;-70
2023/03/25 14:10:21;;;;;;;;;;;;;;;;;;5056436;28;19955;-69
2023/03/25 14:12:47;;;;;;;;;;;;;;;;;;5056468;28;20035;-68
2023/03/25 14:15:13;;;;;;;;;;;;;;;;;;5056661;28;20075;-70
2023/03/25 14:17:39;;;;;;;;;;;;;;;;;;5056634;28;19951;-71
2023/03/25 14:20:07;;;;;;;;;;;;;;;;;;5056336;28;20093;-67
2023/03/25 14:22:33;;;;;;;;;;;;;;;;;;5056453;28;20328;-69
2023/03/25 14:24:59;;;;;;;;;;;;;;;;;;5056514;28;20197;-66
2023/03/25 14:27:28;;;;;;;;;;;;;;;;;;5056471;28;19953;-71
2023/03/25 14:29:55;;;;;;;;;;;;;;;;;;5056313;28;20062;-69
2023/03/25 14:32:20;;;;;;;;;;;;;;;;;;5056092;28;20389;-70
2023/03/25 14:34:48;;;;;;;;;;;;;;;;;;5056577;28;19989;-67
2023/03/25 14:37:14;;;;;;;;;;;;;;;;;;5056206;28;19996;-66
2023/03/25 14:39:40;;;;;;;;;;;;;;;;;;5055641;28;19978;-69
2023/03/25 14:42:05;;;;;;;;;;;;;;;;;;5056450;28;20059;-67
2023/03/25 14:44:31;;;;;;;;;;;;;;;;;;5055841;28;20377;-71
2023/03/25 14:47:00;;;;;;;;;;;;;;;;;;5056108;28;19950;-67
2023/03/25 14:49:29;;;;;;;;;;;;;;;;;;5055752;28;19959;-68
2023/03/25 14:51:54;;;;;;;;;;;;;;;;;;5056016;28;19950;-69
2023/03/25 14:54:21;;;;;;;;;;;;;;;;;;5055566;28;20315;-70
2023/03/25 14:56:46;;;;;;;;;;;;;;;;;;5055550;28;19957;-67
2023/03/25 14:59:12;;;;;;;;;;;;;;;;;;5055589;28;20412;-69
2023/03/25 15:01:39;;;;;;;;;;;;;;;;;;5054998;28;19999;-68
2023/03/25 15:04:05;;;;;;;;;;;;;;;;;;5054809;28;20039;-66
2023/03/25 15:06:31;;;;;;;;;;;;;;;;;;5055596;28;19995;-68
2023/03/25 15:08:58;;;;;;;;;;;;;;;;;;5055430;28;19950;-65
2023/03/25 15:11:24;;;;;;;;;;;;;;;;;;5054862;28;19967;-68
2023/03/25 15:13:51;;;;;;;;;;;;;;;;;;5055057;28;19957;-66
2023/03/25 15:16:17;;;;;;;;;;;;;;;;;;5054976;28;20298;-64
2023/03/25 15:18:43;;;;;;;;;;;;;;;;;;5054335;28;19955;-65
2023/03/25 15:21:09;;;;;;;;;;;;;;;;;;5053222;28;19960;-66
2023/03/25 15:23:35;;;;;;;;;;;;;;;;;;5054699;28;20027;-65
2023/03/25 15:26:01;;;;;;;;;;;;;;;;;;5055010;28;20029;-67
2023/03/25 15:28:27;;;;;;;;;;;;;;;;;;5054623;28;19975;-65
2023/03/25 15:30:53;;;;;;;;;;;;;;;;;;5054673;28;20476;-68
2023/03/25 15:33:19;;;;;;;;;;;;;;;;;;5054731;28;19957;-69
2023/03/25 15:35:46;;;;;;;;;;;;;;;;;;5054892;28;19992;-67
2023/03/25 15:38:12;;;;;;;;;;;;;;;;;;5054450;28;20399;-65
2023/03/25 15:40:38;;;;;;;;;;;;;;;;;;5054080;28;20028;-64
2023/03/25 15:43:04;;;;;;;;;;;;;;;;;;5054717;28;20462;-68
2023/03/25 15:45:30;;;;;;;;;;;;;;;;;;5054629;28;19957;-66
2023/03/25 15:47:56;;;;;;;;;;;;;;;;;;5053173;28;20394;-66
2023/03/25 15:50:22;;;;;;;;;;;;;;;;;;5054506;28;19996;-65
2023/03/25 15:52:47;;;;;;;;;;;;;;;;;;5055078;28;19958;-68
2023/03/25 15:55:13;;;;;;;;;;;;;;;;;;5054485;28;19950;-67
2023/03/25 15:57:39;;;;;;;;;;;;;;;;;;5054482;28;19956;-67
2023/03/25 16:00:12;;;;;;;;;;;;;;;;;;5054325;28;20443;-67
2023/03/25 16:02:38;;;;;;;;;;;;;;;;;;5054542;28;19976;-68
2023/03/25 16:05:04;;;;;;;;;;;;;;;;;;5054581;28;20364;-68
2023/03/25 16:07:30;;;;;;;;;;;;;;;;;;5052796;28;19960;-67
2023/03/25 16:09:56;;;;;;;;;;;;;;;;;;5054532;28;19952;-67
2023/03/25 16:12:22;;;;;;;;;;;;;;;;;;5054499;28;20328;-65
2023/03/25 16:14:48;;;;;;;;;;;;;;;;;;5054756;28;20002;-65
2023/03/25 16:17:14;;;;;;;;;;;;;;;;;;5054405;28;19956;-67
2023/03/25 16:19:40;;;;;;;;;;;;;;;;;;5054083;28;19963;-68
2023/03/25 16:22:07;;;;;;;;;;;;;;;;;;5054218;28;19972;-68
2023/03/25 16:24:33;;;;;;;;;;;;;;;;;;5053346;28;19969;-66
2023/03/25 16:26:59;;;;;;;;;;;;;;;;;;5054531;28;20062;-67
2023/03/25 16:29:25;;;;;;;;;;;;;;;;;;5053798;28;20000;-68
2023/03/25 16:31:51;;;;;;;;;;;;;;;;;;5054404;28;19973;-65
2023/03/25 16:34:17;;;;;;;;;;;;;;;;;;5053862;28;20333;-67
2023/03/25 16:36:43;;;;;;;;;;;;;;;;;;5054289;28;19997;-68
2023/03/25 16:39:10;;;;;;;;;;;;;;;;;;5053748;28;20360;-68